createdAt,value
2022-08-19T00:04:32.433Z,8.10
2022-08-19T00:07:01.110Z,8.10
2022-08-19T00:09:29.820Z,8.90
2022-08-19T00:11:59.480Z,8.20
2022-08-19T00:14:32.330Z,8.20
2022-08-19T00:17:02.035Z,8.30
2022-08-19T00:19:30.385Z,8.70
2022-08-19T00:21:58.350Z,8.00
2022-08-19T00:24:28.640Z,7.80
2022-08-19T00:26:57.775Z,7.60
2022-08-19T00:29:45.708Z,8.80
2022-08-19T00:32:13.644Z,8.30
2022-08-19T00:34:41.720Z,8.50
2022-08-19T00:37:09.618Z,8.60
2022-08-19T00:39:37.647Z,8.20
2022-08-19T00:42:07.420Z,8.70
2022-08-19T00:44:35.354Z,9.10
2022-08-19T00:47:03.447Z,12.70
2022-08-19T00:49:58.939Z,9.20
2022-08-19T00:52:34.752Z,8.70
2022-08-19T00:55:06.142Z,8.50
2022-08-19T00:57:39.373Z,8.60
2022-08-19T01:00:14.486Z,8.20
2022-08-19T01:02:43.544Z,8.40
2022-08-19T01:05:16.985Z,9.00
2022-08-19T01:07:45.856Z,8.80
2022-08-19T01:10:19.484Z,8.90
2022-08-19T01:12:48.681Z,9.10
2022-08-19T01:15:20.739Z,9.00
2022-08-19T01:17:49.788Z,8.10
2022-08-19T01:20:21.356Z,8.40
2022-08-19T01:22:53.377Z,8.60
2022-08-19T01:25:25.275Z,7.80
2022-08-19T01:27:55.186Z,8.20
2022-08-19T01:30:32.358Z,7.70
2022-08-19T01:33:01.604Z,7.60
2022-08-19T01:35:31.483Z,8.20
2022-08-19T01:38:03.056Z,8.00
2022-08-19T01:40:34.325Z,8.20
2022-08-19T01:43:04.067Z,8.00
2022-08-19T01:45:34.691Z,8.00
2022-08-19T01:50:33.105Z,8.80
2022-08-19T01:53:07.620Z,8.20
2022-08-19T01:55:40.650Z,7.70
2022-08-19T01:58:37.065Z,7.20
2022-08-19T02:01:06.548Z,7.50
2022-08-19T02:03:35.751Z,7.70
2022-08-19T02:06:06.358Z,8.30
2022-08-19T02:08:38.102Z,8.10
2022-08-19T02:11:07.508Z,8.10
2022-08-19T02:13:35.769Z,8.10
2022-08-19T02:16:04.201Z,9.10
2022-08-19T02:18:32.544Z,8.30
2022-08-19T02:21:00.462Z,8.10
2022-08-19T02:23:28.607Z,8.20
2022-08-19T02:25:57.067Z,7.70
2022-08-19T02:28:25.238Z,7.70
2022-08-19T02:30:53.084Z,7.70
2022-08-19T02:33:20.961Z,8.30
2022-08-19T02:35:49.084Z,7.60
2022-08-19T02:38:26.474Z,7.80
2022-08-19T02:41:00.733Z,8.30
2022-08-19T02:43:33.711Z,8.10
2022-08-19T02:46:03.908Z,8.20
2022-08-19T02:48:34.063Z,8.20
2022-08-19T02:51:01.952Z,8.10
2022-08-19T02:53:30.247Z,7.20
2022-08-19T02:55:58.437Z,7.00
2022-08-19T02:58:27.693Z,7.10
2022-08-19T03:00:57.483Z,8.00
2022-08-19T03:03:25.824Z,8.40
2022-08-19T03:06:14.195Z,8.70
2022-08-19T03:08:44.880Z,8.50
2022-08-19T03:11:17.561Z,8.20
2022-08-19T03:13:45.895Z,8.20
2022-08-19T03:16:13.828Z,8.20
2022-08-19T03:18:41.792Z,8.20
2022-08-19T03:21:10.474Z,7.60
2022-08-19T03:23:41.199Z,8.00
2022-08-19T03:26:16.639Z,7.70
2022-08-19T03:28:57.668Z,8.80
2022-08-19T03:31:44.564Z,8.00
2022-08-19T03:34:23.072Z,7.90
2022-08-19T03:36:51.089Z,8.70
2022-08-19T03:39:19.742Z,8.40
2022-08-19T03:42:32.484Z,8.10
2022-08-19T03:44:39.163Z,7.80
2022-08-19T03:47:07.624Z,8.10
2022-08-19T03:49:36.865Z,8.10
2022-08-19T03:52:08.427Z,8.50
2022-08-19T03:54:39.050Z,8.00
2022-08-19T03:57:07.841Z,8.00
2022-08-19T03:59:39.400Z,8.30
2022-08-19T04:02:11.530Z,7.90
2022-08-19T04:04:42.616Z,7.80
2022-08-19T04:07:12.186Z,7.50
2022-08-19T04:09:40.072Z,8.00
2022-08-19T04:12:08.748Z,7.50
2022-08-19T04:14:36.734Z,7.50
2022-08-19T04:17:08.084Z,8.00
2022-08-19T04:19:36.865Z,8.00
2022-08-19T04:22:05.529Z,8.10
2022-08-19T04:24:35.280Z,7.80
2022-08-19T04:27:03.869Z,7.40
2022-08-19T04:29:31.954Z,7.70
2022-08-19T04:32:00.351Z,7.60
2022-08-19T04:35:02.640Z,7.80
2022-08-19T04:37:35.042Z,7.50
2022-08-19T04:40:25.133Z,8.10
2022-08-19T04:42:53.174Z,7.40
2022-08-19T04:45:23.020Z,7.60
2022-08-19T04:48:26.373Z,7.80
2022-08-19T04:50:49.536Z,7.70
2022-08-19T04:53:18.163Z,7.30
2022-08-19T04:55:46.103Z,7.30
2022-08-19T04:58:14.130Z,7.40
2022-08-19T05:00:42.654Z,8.00
2022-08-19T05:03:11.566Z,7.40
2022-08-19T05:05:44.457Z,7.70
2022-08-19T05:08:19.642Z,7.40
2022-08-19T05:10:59.733Z,7.20
2022-08-19T05:13:28.162Z,7.60
2022-08-19T05:16:00.931Z,7.40
2022-08-19T05:18:47.676Z,7.30
2022-08-19T05:21:37.256Z,7.30
2022-08-19T05:24:10.212Z,6.90
2022-08-19T05:26:47.629Z,8.10
2022-08-19T05:29:17.825Z,7.60
2022-08-19T05:31:48.340Z,7.50
2022-08-19T05:36:50.907Z,8.30
2022-08-19T05:39:21.370Z,8.00
2022-08-19T05:44:21.040Z,8.00
2022-08-19T05:46:49.674Z,7.90
2022-08-19T05:49:17.673Z,7.90
2022-08-19T05:51:48.025Z,7.60
2022-08-19T05:56:45.231Z,7.50
2022-08-19T05:59:13.216Z,7.10
2022-08-19T06:01:45.108Z,7.10
2022-08-19T06:04:15.167Z,7.10
2022-08-19T06:06:43.800Z,7.10
2022-08-19T06:09:11.930Z,6.60
2022-08-19T06:11:44.559Z,6.70
2022-08-19T06:14:19.676Z,7.10
2022-08-19T06:16:56.968Z,7.70
2022-08-19T06:19:30.185Z,7.50
2022-08-19T06:21:59.764Z,6.90
2022-08-19T06:24:30.397Z,7.50
2022-08-19T06:27:01.674Z,6.80
2022-08-19T06:29:31.131Z,7.70
2022-08-19T06:32:01.550Z,7.30
2022-08-19T06:34:32.146Z,6.80
2022-08-19T06:37:02.340Z,6.90
2022-08-19T06:39:33.940Z,6.80
2022-08-19T06:42:04.939Z,7.00
2022-08-19T06:44:42.729Z,8.40
2022-08-19T06:47:23.439Z,6.60
2022-08-19T06:50:05.221Z,7.30
2022-08-19T06:52:36.704Z,6.40
2022-08-19T06:55:06.123Z,7.00
2022-08-19T06:57:35.801Z,18.70
2022-08-19T07:00:07.203Z,8.30
2022-08-19T07:02:39.072Z,9.00
2022-08-19T07:05:09.129Z,8.50
2022-08-19T07:07:39.009Z,9.60
2022-08-19T07:10:11.170Z,9.00
2022-08-19T07:12:42.089Z,7.40
2022-08-19T07:15:11.179Z,6.80
2022-08-19T07:17:39.965Z,6.70
2022-08-19T07:20:11.221Z,9.50
2022-08-19T07:22:40.511Z,6.80
2022-08-19T07:25:10.938Z,6.50
2022-08-19T07:27:39.831Z,6.70
2022-08-19T07:30:11.759Z,6.80
2022-08-19T07:32:41.467Z,6.50
2022-08-19T07:35:10.696Z,5.80
2022-08-19T07:37:41.015Z,10.30
2022-08-19T07:40:10.234Z,12.80
2022-08-19T07:42:38.220Z,13.10
2022-08-19T07:45:08.011Z,7.30
2022-08-19T07:47:58.577Z,6.60
2022-08-19T07:50:24.177Z,14.00
2022-08-19T07:52:52.842Z,6.70
2022-08-19T07:55:42.143Z,7.00
2022-08-19T07:58:17.976Z,6.70
2022-08-19T08:00:47.996Z,6.80
2022-08-19T08:03:18.701Z,6.20
2022-08-19T08:06:05.782Z,7.20
2022-08-19T08:08:52.817Z,7.40
2022-08-19T08:11:21.381Z,5.80
2022-08-19T08:14:01.398Z,6.30
2022-08-19T08:16:39.805Z,5.60
2022-08-19T08:19:20.393Z,5.40
2022-08-19T08:21:59.535Z,5.40
2022-08-19T08:24:32.016Z,5.70
2022-08-19T08:27:01.829Z,5.60
2022-08-19T08:29:35.018Z,5.60
2022-08-19T08:32:14.958Z,6.40
2022-08-19T08:34:44.111Z,5.60
2022-08-19T08:37:11.957Z,5.60
2022-08-19T08:39:40.134Z,10.10
2022-08-19T08:42:18.717Z,5.90
2022-08-19T08:47:33.634Z,11.00
2022-08-19T08:50:13.457Z,6.20
2022-08-19T08:52:46.726Z,6.00
2022-08-19T08:55:18.054Z,6.80
2022-08-19T08:57:48.537Z,6.80
2022-08-19T09:00:22.129Z,6.40
2022-08-19T09:02:50.717Z,6.10
2022-08-19T09:05:22.700Z,6.00
2022-08-19T09:08:06.296Z,6.20
2022-08-19T09:10:55.479Z,5.00
2022-08-19T09:13:37.672Z,5.70
2022-08-19T09:16:14.285Z,5.30
2022-08-19T09:18:48.060Z,5.10
2022-08-19T09:21:16.744Z,5.00
2022-08-19T09:23:46.132Z,5.80
2022-08-19T09:26:21.915Z,4.70
2022-08-19T09:28:53.637Z,5.40
2022-08-19T09:31:28.942Z,5.20
2022-08-19T09:34:00.529Z,4.50
2022-08-19T09:36:34.929Z,4.90
2022-08-19T09:39:16.346Z,4.60
2022-08-19T09:41:47.277Z,4.00
2022-08-19T09:44:18.095Z,4.50
2022-08-19T09:46:48.266Z,5.00
2022-08-19T09:54:23.833Z,4.10
2022-08-19T09:56:54.681Z,4.40
2022-08-19T09:59:23.193Z,4.20
2022-08-19T10:01:52.450Z,3.60
2022-08-19T10:04:22.482Z,3.60
2022-08-19T10:06:57.552Z,3.20
2022-08-19T10:09:26.195Z,3.80
2022-08-19T10:12:04.115Z,4.20
2022-08-19T10:14:32.489Z,3.40
2022-08-19T10:17:17.406Z,3.90
2022-08-19T10:19:55.600Z,4.10
2022-08-19T10:22:25.472Z,4.20
2022-08-19T10:24:54.316Z,4.20
2022-08-19T10:27:22.898Z,3.40
2022-08-19T10:29:51.388Z,3.80
2022-08-19T10:32:19.445Z,4.30
2022-08-19T10:35:06.962Z,3.90
2022-08-19T10:37:37.926Z,3.80
2022-08-19T10:40:17.774Z,3.60
2022-08-19T10:42:45.832Z,4.10
2022-08-19T10:45:13.774Z,4.00
2022-08-19T10:47:41.869Z,3.50
2022-08-19T10:50:30.145Z,4.10
2022-08-19T10:52:58.391Z,3.80
2022-08-19T10:55:44.998Z,3.80
2022-08-19T10:58:19.108Z,4.40
2022-08-19T11:00:56.176Z,4.00
2022-08-19T11:03:26.358Z,3.90
2022-08-19T11:08:29.623Z,4.30
2022-08-19T11:11:02.012Z,4.20
2022-08-19T11:13:32.549Z,4.80
2022-08-19T11:16:07.408Z,4.20
2022-08-19T11:18:41.735Z,4.20
2022-08-19T11:21:25.298Z,5.20
2022-08-19T11:23:56.894Z,3.80
2022-08-19T11:26:25.759Z,4.00
2022-08-19T11:28:57.771Z,5.00
2022-08-19T11:31:32.605Z,4.80
2022-08-19T11:34:04.230Z,3.90
2022-08-19T11:36:36.255Z,5.30
2022-08-19T11:39:07.346Z,4.80
2022-08-19T11:41:35.369Z,4.90
2022-08-19T11:44:04.448Z,4.00
2022-08-19T11:46:32.741Z,4.00
2022-08-19T11:49:03.290Z,3.60
2022-08-19T11:51:32.774Z,3.80
2022-08-19T11:54:01.149Z,3.90
2022-08-19T11:56:29.616Z,5.70
2022-08-19T11:58:58.798Z,6.30
2022-08-19T12:01:28.060Z,4.00
2022-08-19T12:03:57.621Z,3.80
2022-08-19T12:06:30.155Z,3.90
2022-08-19T12:09:00.028Z,3.70
2022-08-19T12:11:29.510Z,3.70
2022-08-19T12:14:02.591Z,3.60
2022-08-19T12:16:33.705Z,4.70
2022-08-19T12:19:05.265Z,5.30
2022-08-19T12:21:36.357Z,3.80
2022-08-19T12:24:06.396Z,3.80
2022-08-19T12:26:36.008Z,4.00
2022-08-19T12:29:23.854Z,4.20
2022-08-19T12:31:52.566Z,5.90
2022-08-19T12:34:21.567Z,4.10
2022-08-19T12:36:50.894Z,5.10
2022-08-19T12:39:19.155Z,4.30
2022-08-19T12:41:54.152Z,4.50
2022-08-19T12:44:29.328Z,4.40
2022-08-19T12:47:00.804Z,3.80
2022-08-19T12:49:51.955Z,3.80
2022-08-19T12:52:23.412Z,5.60
2022-08-19T12:54:55.504Z,4.30
2022-08-19T12:57:32.165Z,4.90
2022-08-19T13:00:14.897Z,4.50
2022-08-19T13:02:46.575Z,4.30
2022-08-19T13:05:17.789Z,3.90
2022-08-19T13:07:45.932Z,4.00
2022-08-19T13:10:16.531Z,4.00
2022-08-19T13:12:48.255Z,5.10
2022-08-19T13:15:23.779Z,4.00
2022-08-19T13:17:57.100Z,4.20
2022-08-19T13:20:26.640Z,3.80
2022-08-19T13:25:24.385Z,4.30
2022-08-19T13:27:52.981Z,3.70
2022-08-19T13:30:40.930Z,3.90
2022-08-19T13:33:16.107Z,4.20
2022-08-19T13:35:57.972Z,4.00
2022-08-19T13:38:26.052Z,4.00
2022-08-19T13:40:56.356Z,3.90
2022-08-19T13:43:27.418Z,4.70
2022-08-19T13:45:59.035Z,4.30
2022-08-19T13:48:28.136Z,4.60
2022-08-19T13:50:58.906Z,4.90
2022-08-19T13:53:26.814Z,4.00
2022-08-19T13:55:55.202Z,4.50
2022-08-19T13:58:23.682Z,6.10
2022-08-19T14:00:52.058Z,3.40
2022-08-19T14:03:20.162Z,3.50
2022-08-19T14:05:48.319Z,4.50
2022-08-19T14:08:16.872Z,3.90
2022-08-19T14:10:47.963Z,5.90
2022-08-19T14:13:19.609Z,4.70
2022-08-19T14:15:48.610Z,7.10
2022-08-19T14:18:18.689Z,3.70
2022-08-19T14:20:47.074Z,4.90
2022-08-19T14:23:14.924Z,4.00
2022-08-19T14:25:43.898Z,4.20
2022-08-19T14:28:11.803Z,4.70
2022-08-19T14:30:40.094Z,4.40
2022-08-19T14:33:09.409Z,5.00
2022-08-19T14:35:38.461Z,4.60
2022-08-19T14:38:08.198Z,4.50
2022-08-19T14:40:36.167Z,4.30
2022-08-19T14:43:06.379Z,3.50
2022-08-19T14:45:37.871Z,3.90
2022-08-19T14:48:08.182Z,5.00
2022-08-19T14:50:45.891Z,7.90
2022-08-19T14:53:14.247Z,5.20
2022-08-19T14:55:44.569Z,3.80
2022-08-19T14:58:28.861Z,5.30
2022-08-19T15:01:04.300Z,3.60
2022-08-19T15:03:33.043Z,4.30
2022-08-19T15:06:02.772Z,3.90
2022-08-19T15:08:32.486Z,3.80
2022-08-19T15:13:31.235Z,4.10
2022-08-19T15:15:59.276Z,5.00
2022-08-19T15:18:27.109Z,3.80
2022-08-19T15:20:56.076Z,3.60
2022-08-19T15:23:24.661Z,3.70
2022-08-19T15:25:56.550Z,4.00
2022-08-19T15:28:26.846Z,3.50
2022-08-19T15:33:22.782Z,3.90
2022-08-19T15:35:51.783Z,3.80
2022-08-19T15:38:23.829Z,4.30
2022-08-19T15:40:53.409Z,3.40
2022-08-19T15:43:24.327Z,3.70
2022-08-19T15:45:52.255Z,4.20
2022-08-19T15:48:20.062Z,4.00
2022-08-19T15:50:47.957Z,3.60
2022-08-19T15:53:16.369Z,3.30
2022-08-19T15:55:45.978Z,3.80
2022-08-19T15:58:33.806Z,3.50
2022-08-19T16:01:27.249Z,3.30
2022-08-19T16:04:16.551Z,3.40
2022-08-19T16:06:50.682Z,3.40
2022-08-19T16:09:25.103Z,4.80
2022-08-19T16:12:02.637Z,4.00
2022-08-19T16:14:35.363Z,4.00
2022-08-19T16:17:04.571Z,3.90
2022-08-19T16:19:34.286Z,4.80
2022-08-19T16:24:30.136Z,5.40
2022-08-19T16:26:58.048Z,5.50
2022-08-19T16:29:33.411Z,9.60
2022-08-19T16:32:04.745Z,5.50
2022-08-19T16:37:02.233Z,4.00
2022-08-19T16:39:30.623Z,8.20
2022-08-19T16:41:59.795Z,6.30
2022-08-19T16:44:29.659Z,5.90
2022-08-19T16:46:59.738Z,6.00
2022-08-19T16:49:53.158Z,5.90
2022-08-19T16:52:19.946Z,8.00
2022-08-19T16:57:16.256Z,4.00
2022-08-19T16:59:49.092Z,6.40
2022-08-19T17:02:19.289Z,4.10
2022-08-19T17:04:57.571Z,4.40
2022-08-19T17:07:28.407Z,4.30
2022-08-19T17:09:57.814Z,3.80
2022-08-19T17:12:30.505Z,3.90
2022-08-19T17:15:02.566Z,3.80
2022-08-19T17:17:31.681Z,3.70
2022-08-19T17:20:02.709Z,3.70
2022-08-19T17:22:30.896Z,3.70
2022-08-19T17:24:58.849Z,5.00
2022-08-19T17:27:31.382Z,5.50
2022-08-19T17:30:04.762Z,4.80
2022-08-19T17:32:34.984Z,4.40
2022-08-19T17:35:04.159Z,4.40
2022-08-19T17:37:32.684Z,4.30
2022-08-19T17:40:06.264Z,5.70
2022-08-19T17:42:36.590Z,5.40
2022-08-19T17:45:06.203Z,4.40
2022-08-19T17:47:35.209Z,5.40
2022-08-19T17:50:09.484Z,7.70
2022-08-19T17:52:38.960Z,9.00
2022-08-19T17:55:10.479Z,11.60
2022-08-19T17:57:46.234Z,16.00
2022-08-19T18:00:16.903Z,17.30
2022-08-19T18:02:50.529Z,16.90
2022-08-19T18:05:22.393Z,17.40
2022-08-19T18:07:52.374Z,16.90
2022-08-19T18:10:23.827Z,14.50
2022-08-19T18:13:02.852Z,14.60
2022-08-19T18:15:45.533Z,12.60
2022-08-19T18:18:15.501Z,12.00
2022-08-19T18:20:44.623Z,11.40
2022-08-19T18:23:44.707Z,11.00
2022-08-19T18:26:02.042Z,10.70
2022-08-19T18:28:30.829Z,12.20
2022-08-19T18:30:59.372Z,10.70
2022-08-19T18:33:27.665Z,9.70
2022-08-19T18:35:56.086Z,10.30
2022-08-19T18:38:42.369Z,9.90
2022-08-19T18:41:29.695Z,9.30
2022-08-19T18:44:15.969Z,10.20
2022-08-19T18:47:02.582Z,11.40
2022-08-19T18:49:32.896Z,11.70
2022-08-19T18:52:03.245Z,10.80
2022-08-19T18:54:31.241Z,7.80
2022-08-19T18:56:59.304Z,6.20
2022-08-19T18:59:29.121Z,6.00
2022-08-19T19:01:59.291Z,5.80
2022-08-19T19:04:31.686Z,5.70
2022-08-19T19:07:00.273Z,5.60
2022-08-19T19:09:28.622Z,5.60
2022-08-19T19:11:59.898Z,5.60
2022-08-19T19:14:48.520Z,5.80
2022-08-19T19:17:17.974Z,5.80
2022-08-19T19:19:46.040Z,6.10
2022-08-19T19:22:18.795Z,5.50
2022-08-19T19:24:46.692Z,5.80
2022-08-19T19:27:18.552Z,6.00
2022-08-19T19:29:51.509Z,5.90
2022-08-19T19:32:27.041Z,6.20
2022-08-19T19:34:55.652Z,6.80
2022-08-19T19:37:23.550Z,6.30
2022-08-19T19:39:52.656Z,6.90
2022-08-19T19:42:23.896Z,6.40
2022-08-19T19:44:55.785Z,7.00
2022-08-19T19:47:24.752Z,6.70
2022-08-19T19:50:14.688Z,6.20
2022-08-19T19:55:18.243Z,5.50
2022-08-19T19:57:48.926Z,5.80
2022-08-19T20:00:19.107Z,5.30
2022-08-19T20:02:50.320Z,5.90
2022-08-19T20:05:23.773Z,5.10
2022-08-19T20:08:12.788Z,5.30
2022-08-19T20:10:43.583Z,5.30
2022-08-19T20:13:13.603Z,6.20
2022-08-19T20:15:43.625Z,6.00
2022-08-19T20:18:14.396Z,6.20
2022-08-19T20:20:45.170Z,5.70
2022-08-19T20:23:13.357Z,6.10
2022-08-19T20:25:41.259Z,5.70
2022-08-19T20:28:11.979Z,6.30
2022-08-19T20:30:44.960Z,5.50
2022-08-19T20:33:14.905Z,6.30
2022-08-19T20:35:44.527Z,5.70
2022-08-19T20:38:12.951Z,6.00
2022-08-19T20:40:41.404Z,7.40
2022-08-19T20:43:12.024Z,7.50
2022-08-19T20:45:40.095Z,7.40
2022-08-19T20:48:09.134Z,6.20
2022-08-19T20:50:39.044Z,5.70
2022-08-19T20:53:14.365Z,6.10
2022-08-19T20:55:49.318Z,6.00
2022-08-19T20:58:21.286Z,5.90
2022-08-19T21:00:50.620Z,6.90
2022-08-19T21:03:21.945Z,6.00
2022-08-19T21:05:49.918Z,6.00
2022-08-19T21:08:18.339Z,5.90
2022-08-19T21:10:48.237Z,6.20
2022-08-19T21:13:17.123Z,5.80
2022-08-19T21:15:48.605Z,5.90
2022-08-19T21:18:19.338Z,5.90
2022-08-19T21:20:48.350Z,5.80
2022-08-19T21:23:20.310Z,5.60
2022-08-19T21:25:54.451Z,6.00
2022-08-19T21:28:34.238Z,5.60
2022-08-19T21:31:06.318Z,6.00
2022-08-19T21:33:34.214Z,5.60
2022-08-19T21:36:03.228Z,5.50
2022-08-19T21:38:34.884Z,5.60
2022-08-19T21:41:06.092Z,5.50
2022-08-19T21:43:39.553Z,5.30
2022-08-19T21:46:09.051Z,5.70
2022-08-19T21:48:37.950Z,5.70
2022-08-19T21:51:06.366Z,5.40
2022-08-19T21:53:34.945Z,5.60
2022-08-19T21:56:04.489Z,5.60
2022-08-19T21:58:33.841Z,5.60
2022-08-19T22:01:06.152Z,7.00
2022-08-19T22:03:35.745Z,5.80
2022-08-19T22:06:05.007Z,5.90
2022-08-19T22:08:32.922Z,5.80
2022-08-19T22:11:02.506Z,5.50
2022-08-19T22:13:39.938Z,6.30
2022-08-19T22:16:09.646Z,5.90
2022-08-19T22:18:38.128Z,6.10
2022-08-19T22:21:11.221Z,5.60
2022-08-19T22:23:46.881Z,5.80
2022-08-19T22:26:17.538Z,5.60
2022-08-19T22:28:45.813Z,5.70
2022-08-19T22:31:15.662Z,6.10
2022-08-19T22:33:44.414Z,6.10
2022-08-19T22:36:12.322Z,6.10
2022-08-19T22:38:40.306Z,5.60
2022-08-19T22:41:08.250Z,5.90
2022-08-19T22:43:37.671Z,5.90
2022-08-19T22:46:16.908Z,6.00
2022-08-19T22:48:46.697Z,6.30
2022-08-19T22:51:34.296Z,5.70
2022-08-19T22:54:02.928Z,5.90
2022-08-19T22:56:31.009Z,5.80
2022-08-19T22:58:58.904Z,5.60
2022-08-19T23:01:30.324Z,5.70
2022-08-19T23:03:59.800Z,5.90
2022-08-19T23:06:31.226Z,6.00
2022-08-19T23:09:05.364Z,6.50
2022-08-19T23:11:41.753Z,5.70
2022-08-19T23:14:12.769Z,5.70
2022-08-19T23:19:10.312Z,5.90
2022-08-19T23:21:42.587Z,5.50
2022-08-19T23:24:11.430Z,5.80
2022-08-19T23:27:00.250Z,5.70
2022-08-19T23:29:47.353Z,5.50
2022-08-19T23:32:21.368Z,6.20
2022-08-19T23:34:49.746Z,6.00
2022-08-19T23:37:18.059Z,5.90
2022-08-19T23:39:45.920Z,6.00
2022-08-19T23:42:14.027Z,5.90
2022-08-19T23:44:51.387Z,5.80
2022-08-19T23:47:21.715Z,5.80
2022-08-19T23:49:49.749Z,6.50
2022-08-19T23:52:17.643Z,6.20
2022-08-19T23:54:45.668Z,6.00
2022-08-19T23:57:14.582Z,6.30
2022-08-19T23:59:45.583Z,6.40
